Portada
METAR-TAF:

METAR-TAF

Aeroports :

Al-Hassà, Aràbia Saudita

latitud: 25-18N, longitud: 049-29E, altitud: 179 m

Observació

L'informe es va fer fa 1 hora i 14 minuts, a les 06:00 UTC
Vent calma
Temperatura 28°C
Humitat 32%
Pressió 1018 hPa
Visibilitat: 7000 m

METAR: OEAH 310600Z 00000KT 7000 NSC 28/10 Q1018 NOSIG

Hora: 10:14 (07:14 UTC)

Pronòstic

L'informe es va fer fa 8 hores i 14 minuts, a les 23:00 UTC
Pronòstic vàlid del 31 a les 00 UTC al 01 a les 06 UTC
Vent 3 kt amb direcció variable
Visibilitat: 8000 m
Temporalment
l' 31 a les 00 UTC al 31 a les 05 UTC
Visibilitat: 3000 m
boirina
Evolucionant progressivament
l' 31 a les 06 UTC al 31 a les 08 UTC
Vent 12 kt del Est

TAF: OEAH 302300Z 3100/0106 VRB03KT 8000 NSC TEMPO 3100/3105 3000 BR BECMG 3106/3108 09012KT

Observacions i pronòstics meteorològics de més de 4000 aeroports (METAR i TAF).

Les estacions disponibles són els punts grocs i vermells al mapa.

Posi el ratolí al punt desitjat per veure el nom de l'estació.

Feu clic per veure les observacions i els pronòstics meteorològics.

Per canviar el mapa: feu clic els botons verds amb una creu de color negre per apropar; al botó verd amb un guió per allunyar la imatge; o en les fletxes verdes per a mapes adjacents.


METAR-TAF: